sensor_id;sensor_type;location;lat;lon;timestamp;P1;durP1;ratioP1;P2;durP2;ratioP2
23519;SDS011;11936;50.820;4.336;2024-03-29T00:00:34;5.35;;;1.10;;
23519;SDS011;11936;50.820;4.336;2024-03-29T00:03:00;6.80;;;1.17;;
23519;SDS011;11936;50.820;4.336;2024-03-29T00:05:25;3.65;;;1.20;;
23519;SDS011;11936;50.820;4.336;2024-03-29T00:07:51;4.03;;;1.33;;
23519;SDS011;11936;50.820;4.336;2024-03-29T00:10:16;5.13;;;1.20;;
23519;SDS011;11936;50.820;4.336;2024-03-29T00:12:42;3.63;;;1.00;;
23519;SDS011;11936;50.820;4.336;2024-03-29T00:15:08;3.35;;;0.88;;
23519;SDS011;11936;50.820;4.336;2024-03-29T00:17:33;7.82;;;1.33;;
23519;SDS011;11936;50.820;4.336;2024-03-29T00:19:59;2.85;;;1.48;;
23519;SDS011;11936;50.820;4.336;2024-03-29T00:22:24;2.97;;;1.00;;
23519;SDS011;11936;50.820;4.336;2024-03-29T00:24:50;5.10;;;1.25;;
23519;SDS011;11936;50.820;4.336;2024-03-29T00:27:16;2.15;;;0.90;;
23519;SDS011;11936;50.820;4.336;2024-03-29T00:29:41;2.60;;;1.20;;
23519;SDS011;11936;50.820;4.336;2024-03-29T00:32:08;4.22;;;1.15;;
23519;SDS011;11936;50.820;4.336;2024-03-29T00:34:34;2.47;;;1.00;;
23519;SDS011;11936;50.820;4.336;2024-03-29T00:37:00;7.10;;;1.45;;
23519;SDS011;11936;50.820;4.336;2024-03-29T00:39:25;7.25;;;1.20;;
23519;SDS011;11936;50.820;4.336;2024-03-29T00:41:51;3.47;;;1.33;;
23519;SDS011;11936;50.820;4.336;2024-03-29T00:44:16;4.32;;;0.88;;
23519;SDS011;11936;50.820;4.336;2024-03-29T00:46:42;3.47;;;1.00;;
23519;SDS011;11936;50.820;4.336;2024-03-29T00:49:07;3.03;;;1.20;;
23519;SDS011;11936;50.820;4.336;2024-03-29T00:51:33;3.20;;;1.23;;
23519;SDS011;11936;50.820;4.336;2024-03-29T00:53:59;2.85;;;0.70;;
23519;SDS011;11936;50.820;4.336;2024-03-29T00:56:24;2.83;;;1.13;;
23519;SDS011;11936;50.820;4.336;2024-03-29T00:58:50;2.80;;;0.90;;
23519;SDS011;11936;50.820;4.336;2024-03-29T01:01:16;1.02;;;0.63;;
23519;SDS011;11936;50.820;4.336;2024-03-29T01:03:41;4.63;;;1.00;;
23519;SDS011;11936;50.820;4.336;2024-03-29T01:06:07;7.72;;;1.10;;
23519;SDS011;11936;50.820;4.336;2024-03-29T01:08:32;2.55;;;1.13;;
23519;SDS011;11936;50.820;4.336;2024-03-29T01:10:58;2.30;;;1.33;;
23519;SDS011;11936;50.820;4.336;2024-03-29T01:13:24;3.50;;;1.20;;
23519;SDS011;11936;50.820;4.336;2024-03-29T01:15:49;6.43;;;1.13;;
23519;SDS011;11936;50.820;4.336;2024-03-29T01:18:15;5.88;;;1.10;;
23519;SDS011;11936;50.820;4.336;2024-03-29T01:20:40;1.58;;;1.00;;
23519;SDS011;11936;50.820;4.336;2024-03-29T01:23:06;1.90;;;1.05;;
23519;SDS011;11936;50.820;4.336;2024-03-29T01:25:33;1.58;;;0.70;;
23519;SDS011;11936;50.820;4.336;2024-03-29T01:27:59;1.95;;;0.57;;
23519;SDS011;11936;50.820;4.336;2024-03-29T01:30:24;3.90;;;0.80;;
23519;SDS011;11936;50.820;4.336;2024-03-29T01:32:51;1.55;;;0.82;;
23519;SDS011;11936;50.820;4.336;2024-03-29T01:35:20;3.78;;;1.13;;
23519;SDS011;11936;50.820;4.336;2024-03-29T01:37:46;4.45;;;1.17;;
23519;SDS011;11936;50.820;4.336;2024-03-29T01:40:11;4.10;;;1.08;;
23519;SDS011;11936;50.820;4.336;2024-03-29T01:42:37;2.15;;;0.95;;
23519;SDS011;11936;50.820;4.336;2024-03-29T01:45:06;3.58;;;0.98;;
23519;SDS011;11936;50.820;4.336;2024-03-29T01:47:33;6.25;;;1.08;;
23519;SDS011;11936;50.820;4.336;2024-03-29T01:49:58;1.20;;;0.57;;
23519;SDS011;11936;50.820;4.336;2024-03-29T01:52:24;2.67;;;0.57;;
23519;SDS011;11936;50.820;4.336;2024-03-29T01:54:52;1.45;;;0.60;;
23519;SDS011;11936;50.820;4.336;2024-03-29T01:57:17;5.93;;;1.20;;
23519;SDS011;11936;50.820;4.336;2024-03-29T01:59:43;1.98;;;0.60;;
23519;SDS011;11936;50.820;4.336;2024-03-29T02:02:11;2.80;;;0.87;;
23519;SDS011;11936;50.820;4.336;2024-03-29T02:04:37;7.35;;;0.80;;
23519;SDS011;11936;50.820;4.336;2024-03-29T02:07:03;1.40;;;0.50;;
23519;SDS011;11936;50.820;4.336;2024-03-29T02:09:29;0.45;;;0.40;;
23519;SDS011;11936;50.820;4.336;2024-03-29T02:11:55;0.45;;;0.40;;
23519;SDS011;11936;50.820;4.336;2024-03-29T02:14:20;1.10;;;0.50;;
23519;SDS011;11936;50.820;4.336;2024-03-29T02:16:46;0.30;;;0.30;;
23519;SDS011;11936;50.820;4.336;2024-03-29T02:19:12;0.95;;;0.50;;
23519;SDS011;11936;50.820;4.336;2024-03-29T02:21:39;0.65;;;0.50;;
23519;SDS011;11936;50.820;4.336;2024-03-29T02:24:08;1.50;;;0.40;;
23519;SDS011;11936;50.820;4.336;2024-03-29T02:26:34;0.50;;;0.50;;
23519;SDS011;11936;50.820;4.336;2024-03-29T02:29:06;0.50;;;0.50;;
23519;SDS011;11936;50.820;4.336;2024-03-29T02:31:34;0.98;;;0.52;;
23519;SDS011;11936;50.820;4.336;2024-03-29T02:34:00;0.50;;;0.50;;
23519;SDS011;11936;50.820;4.336;2024-03-29T02:36:25;1.27;;;0.80;;
23519;SDS011;11936;50.820;4.336;2024-03-29T02:38:51;0.68;;;0.52;;
23519;SDS011;11936;50.820;4.336;2024-03-29T02:41:17;1.60;;;0.60;;
23519;SDS011;11936;50.820;4.336;2024-03-29T02:43:43;2.60;;;1.10;;
23519;SDS011;11936;50.820;4.336;2024-03-29T02:46:09;1.83;;;0.95;;
23519;SDS011;11936;50.820;4.336;2024-03-29T02:48:34;2.00;;;1.10;;
23519;SDS011;11936;50.820;4.336;2024-03-29T02:51:00;2.65;;;1.33;;
23519;SDS011;11936;50.820;4.336;2024-03-29T02:53:26;3.60;;;1.20;;
23519;SDS011;11936;50.820;4.336;2024-03-29T02:55:52;4.72;;;1.00;;
23519;SDS011;11936;50.820;4.336;2024-03-29T02:58:17;1.08;;;0.88;;
23519;SDS011;11936;50.820;4.336;2024-03-29T03:00:43;1.42;;;0.68;;
23519;SDS011;11936;50.820;4.336;2024-03-29T03:03:08;3.33;;;0.80;;
23519;SDS011;11936;50.820;4.336;2024-03-29T03:05:34;3.70;;;0.80;;
23519;SDS011;11936;50.820;4.336;2024-03-29T03:08:00;3.22;;;0.93;;
23519;SDS011;11936;50.820;4.336;2024-03-29T03:10:47;1.25;;;0.77;;
23519;SDS011;11936;50.820;4.336;2024-03-29T03:13:21;1.05;;;0.85;;
23519;SDS011;11936;50.820;4.336;2024-03-29T03:15:47;1.75;;;0.90;;
23519;SDS011;11936;50.820;4.336;2024-03-29T03:18:13;2.22;;;0.82;;
23519;SDS011;11936;50.820;4.336;2024-03-29T03:20:38;4.88;;;1.38;;
23519;SDS011;11936;50.820;4.336;2024-03-29T03:23:04;2.35;;;0.90;;
23519;SDS011;11936;50.820;4.336;2024-03-29T03:25:30;4.05;;;1.10;;
23519;SDS011;11936;50.820;4.336;2024-03-29T03:27:56;2.65;;;0.98;;
23519;SDS011;11936;50.820;4.336;2024-03-29T03:30:21;1.48;;;0.90;;
23519;SDS011;11936;50.820;4.336;2024-03-29T03:32:47;2.83;;;1.13;;
23519;SDS011;11936;50.820;4.336;2024-03-29T03:35:13;2.13;;;1.10;;
23519;SDS011;11936;50.820;4.336;2024-03-29T03:37:39;4.80;;;1.05;;
23519;SDS011;11936;50.820;4.336;2024-03-29T03:40:05;2.88;;;1.25;;
23519;SDS011;11936;50.820;4.336;2024-03-29T03:42:31;2.15;;;0.70;;
23519;SDS011;11936;50.820;4.336;2024-03-29T03:44:57;2.58;;;1.10;;
23519;SDS011;11936;50.820;4.336;2024-03-29T03:47:23;1.08;;;0.98;;
23519;SDS011;11936;50.820;4.336;2024-03-29T03:49:49;2.03;;;1.13;;
23519;SDS011;11936;50.820;4.336;2024-03-29T03:52:14;1.23;;;0.70;;
23519;SDS011;11936;50.820;4.336;2024-03-29T03:54:40;1.88;;;0.60;;
23519;SDS011;11936;50.820;4.336;2024-03-29T03:57:05;3.50;;;1.00;;
23519;SDS011;11936;50.820;4.336;2024-03-29T03:59:31;1.50;;;0.73;;
23519;SDS011;11936;50.820;4.336;2024-03-29T04:01:57;1.88;;;0.80;;
23519;SDS011;11936;50.820;4.336;2024-03-29T04:04:23;2.17;;;1.20;;
23519;SDS011;11936;50.820;4.336;2024-03-29T04:06:48;0.93;;;0.60;;
23519;SDS011;11936;50.820;4.336;2024-03-29T04:09:14;4.28;;;0.82;;
23519;SDS011;11936;50.820;4.336;2024-03-29T04:14:08;1.30;;;0.70;;
23519;SDS011;11936;50.820;4.336;2024-03-29T04:16:34;1.10;;;0.80;;
23519;SDS011;11936;50.820;4.336;2024-03-29T04:19:00;1.00;;;0.68;;
23519;SDS011;11936;50.820;4.336;2024-03-29T04:21:25;2.10;;;0.80;;
23519;SDS011;11936;50.820;4.336;2024-03-29T04:23:51;0.65;;;0.43;;
23519;SDS011;11936;50.820;4.336;2024-03-29T04:26:19;4.00;;;0.80;;
23519;SDS011;11936;50.820;4.336;2024-03-29T04:28:45;1.02;;;0.93;;
23519;SDS011;11936;50.820;4.336;2024-03-29T04:31:10;2.20;;;0.70;;
23519;SDS011;11936;50.820;4.336;2024-03-29T04:33:36;2.88;;;0.95;;
23519;SDS011;11936;50.820;4.336;2024-03-29T04:36:05;1.27;;;0.70;;
23519;SDS011;11936;50.820;4.336;2024-03-29T04:38:31;6.03;;;2.45;;
23519;SDS011;11936;50.820;4.336;2024-03-29T04:40:57;6.47;;;0.98;;
23519;SDS011;11936;50.820;4.336;2024-03-29T04:43:27;1.08;;;0.63;;
23519;SDS011;11936;50.820;4.336;2024-03-29T04:46:03;1.77;;;0.80;;
23519;SDS011;11936;50.820;4.336;2024-03-29T04:48:33;1.13;;;0.70;;
23519;SDS011;11936;50.820;4.336;2024-03-29T04:50:59;1.15;;;0.70;;
23519;SDS011;11936;50.820;4.336;2024-03-29T04:53:25;1.75;;;0.57;;
23519;SDS011;11936;50.820;4.336;2024-03-29T04:55:54;3.60;;;0.68;;
23519;SDS011;11936;50.820;4.336;2024-03-29T04:58:24;1.20;;;0.70;;
23519;SDS011;11936;50.820;4.336;2024-03-29T05:00:50;2.15;;;0.57;;
23519;SDS011;11936;50.820;4.336;2024-03-29T05:03:17;2.88;;;0.65;;
23519;SDS011;11936;50.820;4.336;2024-03-29T05:05:44;1.85;;;0.80;;
23519;SDS011;11936;50.820;4.336;2024-03-29T05:08:10;3.05;;;0.65;;
23519;SDS011;11936;50.820;4.336;2024-03-29T05:10:36;3.65;;;0.70;;
23519;SDS011;11936;50.820;4.336;2024-03-29T05:13:02;2.17;;;0.80;;
23519;SDS011;11936;50.820;4.336;2024-03-29T05:15:28;1.75;;;0.60;;
23519;SDS011;11936;50.820;4.336;2024-03-29T05:17:54;1.27;;;0.90;;
23519;SDS011;11936;50.820;4.336;2024-03-29T05:20:20;1.08;;;0.60;;
23519;SDS011;11936;50.820;4.336;2024-03-29T05:22:45;1.10;;;0.68;;
23519;SDS011;11936;50.820;4.336;2024-03-29T05:25:11;2.55;;;0.90;;
23519;SDS011;11936;50.820;4.336;2024-03-29T05:27:36;5.65;;;1.23;;
23519;SDS011;11936;50.820;4.336;2024-03-29T05:30:02;0.65;;;0.60;;
23519;SDS011;11936;50.820;4.336;2024-03-29T05:32:31;1.65;;;0.80;;
23519;SDS011;11936;50.820;4.336;2024-03-29T05:37:23;1.13;;;0.82;;
23519;SDS011;11936;50.820;4.336;2024-03-29T05:39:51;1.25;;;0.70;;
23519;SDS011;11936;50.820;4.336;2024-03-29T05:42:31;1.80;;;0.80;;
23519;SDS011;11936;50.820;4.336;2024-03-29T05:45:03;2.43;;;0.93;;
23519;SDS011;11936;50.820;4.336;2024-03-29T05:47:29;1.67;;;0.95;;
23519;SDS011;11936;50.820;4.336;2024-03-29T05:49:55;2.90;;;0.80;;
23519;SDS011;11936;50.820;4.336;2024-03-29T05:52:21;0.75;;;0.73;;
23519;SDS011;11936;50.820;4.336;2024-03-29T05:54:48;2.83;;;1.25;;
23519;SDS011;11936;50.820;4.336;2024-03-29T05:57:13;2.83;;;1.00;;
23519;SDS011;11936;50.820;4.336;2024-03-29T05:59:39;1.73;;;1.15;;
23519;SDS011;11936;50.820;4.336;2024-03-29T06:02:05;1.45;;;1.10;;
23519;SDS011;11936;50.820;4.336;2024-03-29T06:04:31;0.77;;;0.60;;
23519;SDS011;11936;50.820;4.336;2024-03-29T06:07:03;1.25;;;0.90;;
23519;SDS011;11936;50.820;4.336;2024-03-29T06:09:31;1.58;;;0.90;;
23519;SDS011;11936;50.820;4.336;2024-03-29T06:11:58;1.70;;;1.23;;
23519;SDS011;11936;50.820;4.336;2024-03-29T06:14:24;1.80;;;1.00;;
23519;SDS011;11936;50.820;4.336;2024-03-29T06:17:08;3.90;;;1.10;;
23519;SDS011;11936;50.820;4.336;2024-03-29T06:19:52;2.00;;;0.93;;
23519;SDS011;11936;50.820;4.336;2024-03-29T06:22:21;1.50;;;1.00;;
23519;SDS011;11936;50.820;4.336;2024-03-29T06:24:48;3.25;;;1.55;;
23519;SDS011;11936;50.820;4.336;2024-03-29T06:27:16;2.17;;;1.30;;
23519;SDS011;11936;50.820;4.336;2024-03-29T06:29:43;4.05;;;1.00;;
23519;SDS011;11936;50.820;4.336;2024-03-29T06:32:09;3.28;;;1.70;;
23519;SDS011;11936;50.820;4.336;2024-03-29T06:34:35;2.92;;;1.30;;
23519;SDS011;11936;50.820;4.336;2024-03-29T06:37:01;3.90;;;1.35;;
23519;SDS011;11936;50.820;4.336;2024-03-29T06:39:27;3.05;;;1.35;;
23519;SDS011;11936;50.820;4.336;2024-03-29T06:41:52;2.45;;;1.23;;
23519;SDS011;11936;50.820;4.336;2024-03-29T06:44:18;6.32;;;1.88;;
23519;SDS011;11936;50.820;4.336;2024-03-29T06:46:44;3.13;;;1.35;;
23519;SDS011;11936;50.820;4.336;2024-03-29T06:49:10;7.05;;;1.67;;
23519;SDS011;11936;50.820;4.336;2024-03-29T06:51:36;2.83;;;1.60;;
23519;SDS011;11936;50.820;4.336;2024-03-29T06:54:01;5.13;;;1.70;;
23519;SDS011;11936;50.820;4.336;2024-03-29T06:56:28;4.80;;;1.60;;
23519;SDS011;11936;50.820;4.336;2024-03-29T06:58:55;7.55;;;1.67;;
23519;SDS011;11936;50.820;4.336;2024-03-29T07:01:20;2.42;;;1.30;;
23519;SDS011;11936;50.820;4.336;2024-03-29T07:03:46;3.22;;;1.48;;
23519;SDS011;11936;50.820;4.336;2024-03-29T07:06:12;7.68;;;3.22;;
23519;SDS011;11936;50.820;4.336;2024-03-29T07:08:38;3.63;;;1.80;;
23519;SDS011;11936;50.820;4.336;2024-03-29T07:11:03;3.67;;;1.48;;
23519;SDS011;11936;50.820;4.336;2024-03-29T07:13:29;6.03;;;1.70;;
23519;SDS011;11936;50.820;4.336;2024-03-29T07:15:58;3.30;;;1.30;;
23519;SDS011;11936;50.820;4.336;2024-03-29T07:18:24;3.50;;;1.42;;
23519;SDS011;11936;50.820;4.336;2024-03-29T07:20:50;2.53;;;1.30;;
23519;SDS011;11936;50.820;4.336;2024-03-29T07:23:16;5.28;;;1.95;;
23519;SDS011;11936;50.820;4.336;2024-03-29T07:25:44;5.30;;;1.92;;
23519;SDS011;11936;50.820;4.336;2024-03-29T07:28:10;5.78;;;1.83;;
23519;SDS011;11936;50.820;4.336;2024-03-29T07:30:39;4.97;;;2.08;;
23519;SDS011;11936;50.820;4.336;2024-03-29T07:33:09;4.07;;;1.85;;
23519;SDS011;11936;50.820;4.336;2024-03-29T07:35:35;4.18;;;1.77;;
23519;SDS011;11936;50.820;4.336;2024-03-29T07:38:01;6.47;;;1.73;;
23519;SDS011;11936;50.820;4.336;2024-03-29T07:40:27;3.22;;;1.65;;
23519;SDS011;11936;50.820;4.336;2024-03-29T07:42:52;1.73;;;1.60;;
23519;SDS011;11936;50.820;4.336;2024-03-29T07:45:18;5.07;;;1.90;;
23519;SDS011;11936;50.820;4.336;2024-03-29T07:47:43;2.50;;;1.40;;
23519;SDS011;11936;50.820;4.336;2024-03-29T07:50:10;3.50;;;1.73;;
23519;SDS011;11936;50.820;4.336;2024-03-29T07:52:35;3.25;;;1.55;;
23519;SDS011;11936;50.820;4.336;2024-03-29T07:55:01;3.13;;;1.70;;
23519;SDS011;11936;50.820;4.336;2024-03-29T07:57:27;5.40;;;1.60;;
23519;SDS011;11936;50.820;4.336;2024-03-29T07:59:52;5.53;;;1.70;;
23519;SDS011;11936;50.820;4.336;2024-03-29T08:02:18;3.25;;;1.75;;
23519;SDS011;11936;50.820;4.336;2024-03-29T08:04:44;3.92;;;1.52;;
23519;SDS011;11936;50.820;4.336;2024-03-29T08:07:09;2.33;;;1.40;;
23519;SDS011;11936;50.820;4.336;2024-03-29T08:09:36;4.97;;;1.88;;
23519;SDS011;11936;50.820;4.336;2024-03-29T08:12:04;4.22;;;1.45;;
23519;SDS011;11936;50.820;4.336;2024-03-29T08:14:30;2.53;;;1.40;;
23519;SDS011;11936;50.820;4.336;2024-03-29T08:16:56;4.78;;;1.55;;
23519;SDS011;11936;50.820;4.336;2024-03-29T08:19:27;4.20;;;1.63;;
23519;SDS011;11936;50.820;4.336;2024-03-29T08:21:52;2.92;;;1.90;;
23519;SDS011;11936;50.820;4.336;2024-03-29T08:24:18;1.70;;;1.40;;
23519;SDS011;11936;50.820;4.336;2024-03-29T08:26:44;5.90;;;1.73;;
23519;SDS011;11936;50.820;4.336;2024-03-29T08:29:10;5.10;;;1.67;;
23519;SDS011;11936;50.820;4.336;2024-03-29T08:31:35;4.45;;;1.88;;
23519;SDS011;11936;50.820;4.336;2024-03-29T08:34:01;7.05;;;2.10;;
23519;SDS011;11936;50.820;4.336;2024-03-29T08:36:27;6.60;;;2.47;;
23519;SDS011;11936;50.820;4.336;2024-03-29T08:38:52;2.40;;;1.48;;
23519;SDS011;11936;50.820;4.336;2024-03-29T08:41:18;2.60;;;1.70;;
23519;SDS011;11936;50.820;4.336;2024-03-29T08:43:44;2.67;;;1.90;;
23519;SDS011;11936;50.820;4.336;2024-03-29T08:46:09;2.58;;;1.80;;
23519;SDS011;11936;50.820;4.336;2024-03-29T08:48:35;6.95;;;2.30;;
23519;SDS011;11936;50.820;4.336;2024-03-29T08:51:02;4.03;;;1.85;;
23519;SDS011;11936;50.820;4.336;2024-03-29T08:53:28;5.10;;;1.35;;
23519;SDS011;11936;50.820;4.336;2024-03-29T08:55:54;4.10;;;1.42;;
23519;SDS011;11936;50.820;4.336;2024-03-29T08:58:19;2.88;;;1.40;;
23519;SDS011;11936;50.820;4.336;2024-03-29T09:00:55;4.70;;;1.83;;
23519;SDS011;11936;50.820;4.336;2024-03-29T09:03:24;7.78;;;1.50;;
23519;SDS011;11936;50.820;4.336;2024-03-29T09:05:50;2.22;;;1.42;;
23519;SDS011;11936;50.820;4.336;2024-03-29T09:08:19;3.85;;;1.52;;
23519;SDS011;11936;50.820;4.336;2024-03-29T09:10:45;3.05;;;1.88;;
23519;SDS011;11936;50.820;4.336;2024-03-29T09:13:11;6.90;;;1.67;;
23519;SDS011;11936;50.820;4.336;2024-03-29T09:15:37;4.22;;;1.30;;
23519;SDS011;11936;50.820;4.336;2024-03-29T09:18:02;3.40;;;1.10;;
23519;SDS011;11936;50.820;4.336;2024-03-29T09:20:38;1.23;;;1.13;;
23519;SDS011;11936;50.820;4.336;2024-03-29T09:23:03;3.42;;;1.40;;
23519;SDS011;11936;50.820;4.336;2024-03-29T09:25:29;2.50;;;1.70;;
23519;SDS011;11936;50.820;4.336;2024-03-29T09:27:57;3.30;;;1.13;;
23519;SDS011;11936;50.820;4.336;2024-03-29T09:30:22;4.03;;;1.33;;
23519;SDS011;11936;50.820;4.336;2024-03-29T09:32:48;3.03;;;1.67;;
23519;SDS011;11936;50.820;4.336;2024-03-29T09:35:15;1.92;;;1.52;;
23519;SDS011;11936;50.820;4.336;2024-03-29T09:37:42;6.10;;;2.08;;
23519;SDS011;11936;50.820;4.336;2024-03-29T09:40:08;1.55;;;1.38;;
23519;SDS011;11936;50.820;4.336;2024-03-29T09:42:35;3.22;;;1.65;;
23519;SDS011;11936;50.820;4.336;2024-03-29T09:45:04;2.22;;;1.80;;
23519;SDS011;11936;50.820;4.336;2024-03-29T09:47:31;3.25;;;1.65;;
23519;SDS011;11936;50.820;4.336;2024-03-29T09:49:59;2.85;;;1.55;;
23519;SDS011;11936;50.820;4.336;2024-03-29T09:52:28;3.70;;;1.83;;
23519;SDS011;11936;50.820;4.336;2024-03-29T09:54:55;2.83;;;1.50;;
23519;SDS011;11936;50.820;4.336;2024-03-29T09:57:22;3.42;;;1.40;;
23519;SDS011;11936;50.820;4.336;2024-03-29T09:59:49;3.45;;;1.95;;
23519;SDS011;11936;50.820;4.336;2024-03-29T10:02:15;1.30;;;1.20;;
23519;SDS011;11936;50.820;4.336;2024-03-29T10:04:42;1.63;;;1.30;;
23519;SDS011;11936;50.820;4.336;2024-03-29T10:07:10;2.63;;;1.50;;
23519;SDS011;11936;50.820;4.336;2024-03-29T10:09:37;2.83;;;1.58;;
23519;SDS011;11936;50.820;4.336;2024-03-29T10:12:04;4.25;;;1.63;;
23519;SDS011;11936;50.820;4.336;2024-03-29T10:14:30;9.40;;;2.17;;
23519;SDS011;11936;50.820;4.336;2024-03-29T10:16:59;3.75;;;1.55;;
23519;SDS011;11936;50.820;4.336;2024-03-29T10:21:50;2.75;;;1.52;;
23519;SDS011;11936;50.820;4.336;2024-03-29T10:24:16;3.25;;;1.83;;
23519;SDS011;11936;50.820;4.336;2024-03-29T10:26:42;5.25;;;1.73;;
23519;SDS011;11936;50.820;4.336;2024-03-29T10:29:08;2.25;;;1.55;;
23519;SDS011;11936;50.820;4.336;2024-03-29T10:31:34;4.32;;;1.35;;
23519;SDS011;11936;50.820;4.336;2024-03-29T10:34:04;2.80;;;1.67;;
23519;SDS011;11936;50.820;4.336;2024-03-29T10:36:30;5.60;;;1.52;;
23519;SDS011;11936;50.820;4.336;2024-03-29T10:39:08;4.15;;;1.98;;
23519;SDS011;11936;50.820;4.336;2024-03-29T10:41:41;2.33;;;1.30;;
23519;SDS011;11936;50.820;4.336;2024-03-29T10:44:11;3.35;;;0.95;;
23519;SDS011;11936;50.820;4.336;2024-03-29T10:46:38;3.80;;;1.15;;
23519;SDS011;11936;50.820;4.336;2024-03-29T10:49:08;1.77;;;0.75;;
23519;SDS011;11936;50.820;4.336;2024-03-29T10:51:36;1.88;;;1.33;;
23519;SDS011;11936;50.820;4.336;2024-03-29T10:54:12;5.03;;;0.90;;
23519;SDS011;11936;50.820;4.336;2024-03-29T10:56:38;4.85;;;1.20;;
23519;SDS011;11936;50.820;4.336;2024-03-29T10:59:16;1.83;;;0.90;;
23519;SDS011;11936;50.820;4.336;2024-03-29T11:01:59;5.53;;;1.17;;
23519;SDS011;11936;50.820;4.336;2024-03-29T11:04:29;3.00;;;0.80;;
23519;SDS011;11936;50.820;4.336;2024-03-29T11:06:59;2.22;;;0.77;;
23519;SDS011;11936;50.820;4.336;2024-03-29T11:09:30;3.00;;;1.20;;
23519;SDS011;11936;50.820;4.336;2024-03-29T11:11:58;2.78;;;1.08;;
23519;SDS011;11936;50.820;4.336;2024-03-29T11:14:29;6.18;;;0.88;;
23519;SDS011;11936;50.820;4.336;2024-03-29T11:17:01;1.95;;;0.90;;
23519;SDS011;11936;50.820;4.336;2024-03-29T11:19:28;1.77;;;0.80;;
23519;SDS011;11936;50.820;4.336;2024-03-29T11:21:54;1.73;;;0.85;;
23519;SDS011;11936;50.820;4.336;2024-03-29T11:24:22;0.77;;;0.50;;
23519;SDS011;11936;50.820;4.336;2024-03-29T11:26:47;3.65;;;0.82;;
23519;SDS011;11936;50.820;4.336;2024-03-29T11:29:20;0.93;;;0.88;;
23519;SDS011;11936;50.820;4.336;2024-03-29T11:31:46;0.93;;;0.70;;
23519;SDS011;11936;50.820;4.336;2024-03-29T11:34:14;1.05;;;0.70;;
23519;SDS011;11936;50.820;4.336;2024-03-29T11:36:43;1.23;;;0.45;;
23519;SDS011;11936;50.820;4.336;2024-03-29T11:39:19;0.73;;;0.55;;
23519;SDS011;11936;50.820;4.336;2024-03-29T11:41:48;0.65;;;0.60;;
23519;SDS011;11936;50.820;4.336;2024-03-29T11:44:14;5.82;;;1.10;;
23519;SDS011;11936;50.820;4.336;2024-03-29T11:46:41;1.00;;;0.93;;
23519;SDS011;11936;50.820;4.336;2024-03-29T11:49:08;3.42;;;1.10;;
23519;SDS011;11936;50.820;4.336;2024-03-29T11:51:34;1.20;;;0.70;;
23519;SDS011;11936;50.820;4.336;2024-03-29T11:54:00;3.33;;;0.70;;
23519;SDS011;11936;50.820;4.336;2024-03-29T11:56:26;1.75;;;0.80;;
23519;SDS011;11936;50.820;4.336;2024-03-29T11:58:52;1.00;;;0.70;;
23519;SDS011;11936;50.820;4.336;2024-03-29T12:01:19;1.83;;;0.47;;
23519;SDS011;11936;50.820;4.336;2024-03-29T12:03:45;3.92;;;0.80;;
23519;SDS011;11936;50.820;4.336;2024-03-29T12:06:12;0.85;;;0.80;;
23519;SDS011;11936;50.820;4.336;2024-03-29T12:08:40;5.22;;;0.85;;
23519;SDS011;11936;50.820;4.336;2024-03-29T12:11:08;0.70;;;0.60;;
23519;SDS011;11936;50.820;4.336;2024-03-29T12:13:34;1.20;;;0.90;;
23519;SDS011;11936;50.820;4.336;2024-03-29T12:16:00;2.22;;;1.23;;
23519;SDS011;11936;50.820;4.336;2024-03-29T12:18:26;2.25;;;1.00;;
23519;SDS011;11936;50.820;4.336;2024-03-29T12:20:58;2.67;;;1.10;;
23519;SDS011;11936;50.820;4.336;2024-03-29T12:23:24;3.28;;;0.88;;
23519;SDS011;11936;50.820;4.336;2024-03-29T12:25:50;2.95;;;1.15;;
23519;SDS011;11936;50.820;4.336;2024-03-29T12:28:20;2.17;;;1.35;;
23519;SDS011;11936;50.820;4.336;2024-03-29T12:30:47;1.77;;;1.38;;
23519;SDS011;11936;50.820;4.336;2024-03-29T12:33:14;1.63;;;1.15;;
23519;SDS011;11936;50.820;4.336;2024-03-29T12:35:44;7.47;;;1.40;;
23519;SDS011;11936;50.820;4.336;2024-03-29T12:38:12;1.63;;;1.20;;
23519;SDS011;11936;50.820;4.336;2024-03-29T12:40:38;2.78;;;1.30;;
23519;SDS011;11936;50.820;4.336;2024-03-29T12:43:06;4.90;;;1.10;;
23519;SDS011;11936;50.820;4.336;2024-03-29T12:45:35;3.28;;;0.88;;
23519;SDS011;11936;50.820;4.336;2024-03-29T12:48:11;0.60;;;0.60;;
23519;SDS011;11936;50.820;4.336;2024-03-29T12:50:43;2.50;;;1.10;;
23519;SDS011;11936;50.820;4.336;2024-03-29T12:53:11;5.05;;;1.05;;
23519;SDS011;11936;50.820;4.336;2024-03-29T12:55:41;1.52;;;0.73;;
23519;SDS011;11936;50.820;4.336;2024-03-29T12:58:12;2.53;;;0.80;;
23519;SDS011;11936;50.820;4.336;2024-03-29T13:00:43;0.90;;;0.80;;
23519;SDS011;11936;50.820;4.336;2024-03-29T13:03:08;5.07;;;0.60;;
23519;SDS011;11936;50.820;4.336;2024-03-29T13:05:37;2.83;;;1.00;;
23519;SDS011;11936;50.820;4.336;2024-03-29T13:08:07;1.23;;;0.70;;
23519;SDS011;11936;50.820;4.336;2024-03-29T13:10:35;0.88;;;0.85;;
23519;SDS011;11936;50.820;4.336;2024-03-29T13:13:02;2.63;;;0.85;;
23519;SDS011;11936;50.820;4.336;2024-03-29T13:15:27;2.95;;;0.85;;
23519;SDS011;11936;50.820;4.336;2024-03-29T13:17:54;1.20;;;0.90;;
23519;SDS011;11936;50.820;4.336;2024-03-29T13:20:20;2.17;;;0.88;;
23519;SDS011;11936;50.820;4.336;2024-03-29T13:22:47;5.47;;;1.00;;
23519;SDS011;11936;50.820;4.336;2024-03-29T13:25:18;3.87;;;1.27;;
23519;SDS011;11936;50.820;4.336;2024-03-29T13:27:45;3.72;;;1.48;;
23519;SDS011;11936;50.820;4.336;2024-03-29T13:30:18;1.25;;;1.13;;
23519;SDS011;11936;50.820;4.336;2024-03-29T13:32:45;1.02;;;0.93;;
23519;SDS011;11936;50.820;4.336;2024-03-29T13:35:10;1.63;;;0.93;;
23519;SDS011;11936;50.820;4.336;2024-03-29T13:37:41;0.75;;;0.75;;
23519;SDS011;11936;50.820;4.336;2024-03-29T13:40:14;2.45;;;1.10;;
23519;SDS011;11936;50.820;4.336;2024-03-29T13:42:40;2.13;;;0.98;;
23519;SDS011;11936;50.820;4.336;2024-03-29T13:45:07;2.40;;;0.65;;
23519;SDS011;11936;50.820;4.336;2024-03-29T13:47:39;0.90;;;0.60;;
23519;SDS011;11936;50.820;4.336;2024-03-29T13:50:05;0.88;;;0.63;;
23519;SDS011;11936;50.820;4.336;2024-03-29T13:52:32;1.38;;;0.70;;
23519;SDS011;11936;50.820;4.336;2024-03-29T13:54:58;2.30;;;0.73;;
23519;SDS011;11936;50.820;4.336;2024-03-29T13:57:24;1.83;;;0.73;;
23519;SDS011;11936;50.820;4.336;2024-03-29T13:59:50;2.45;;;0.75;;
23519;SDS011;11936;50.820;4.336;2024-03-29T14:02:16;0.73;;;0.60;;
23519;SDS011;11936;50.820;4.336;2024-03-29T14:04:46;2.90;;;0.77;;
23519;SDS011;11936;50.820;4.336;2024-03-29T14:07:12;0.80;;;0.65;;
23519;SDS011;11936;50.820;4.336;2024-03-29T14:09:43;4.38;;;1.08;;
23519;SDS011;11936;50.820;4.336;2024-03-29T14:12:09;1.10;;;0.80;;
23519;SDS011;11936;50.820;4.336;2024-03-29T14:14:35;1.90;;;0.77;;
23519;SDS011;11936;50.820;4.336;2024-03-29T14:17:02;1.63;;;0.70;;
23519;SDS011;11936;50.820;4.336;2024-03-29T14:19:34;1.50;;;0.80;;
23519;SDS011;11936;50.820;4.336;2024-03-29T14:22:04;1.65;;;0.50;;
23519;SDS011;11936;50.820;4.336;2024-03-29T14:24:31;0.85;;;0.68;;
23519;SDS011;11936;50.820;4.336;2024-03-29T14:27:00;3.30;;;1.00;;
23519;SDS011;11936;50.820;4.336;2024-03-29T14:29:28;4.40;;;1.00;;
23519;SDS011;11936;50.820;4.336;2024-03-29T14:31:54;2.13;;;1.15;;
23519;SDS011;11936;50.820;4.336;2024-03-29T14:34:20;2.65;;;1.10;;
23519;SDS011;11936;50.820;4.336;2024-03-29T14:36:47;3.90;;;1.27;;
23519;SDS011;11936;50.820;4.336;2024-03-29T14:39:12;0.93;;;0.90;;
23519;SDS011;11936;50.820;4.336;2024-03-29T14:41:41;1.63;;;1.40;;
23519;SDS011;11936;50.820;4.336;2024-03-29T14:44:08;2.63;;;1.73;;
23519;SDS011;11936;50.820;4.336;2024-03-29T14:46:34;2.08;;;1.63;;
23519;SDS011;11936;50.820;4.336;2024-03-29T14:49:00;3.53;;;1.15;;
23519;SDS011;11936;50.820;4.336;2024-03-29T14:51:30;3.42;;;1.55;;
23519;SDS011;11936;50.820;4.336;2024-03-29T14:53:59;2.58;;;1.45;;